D/T METAR WX W/DIR W/SPE G/SPE TEMP DEWP
16/01/19 02:50 EGPF 160250Z AUTO 22018KT 7000 -RA BKN013/// OVC017/// //////CB 08/07 Q0996 -RA SW (220°) 20.7mph 8°C 7°C
16/01/19 02:20 EGPF 160220Z AUTO 22017KT 6000 -RA OVC013/// //////CB 08/07 Q0997 -RA SW (220°) 19.6mph 8°C 7°C
16/01/19 01:50 EGPF 160150Z AUTO 22023KT 9999 BKN016/// BKN045/// //////CB 09/06 Q0997 SW (220°) 26.5mph 9°C 6°C
16/01/19 01:20 EGPF 160120Z AUTO 22018KT 9999 BKN016 BKN049 09/07 Q0998 SW (220°) 20.7mph 9°C 7°C
16/01/19 00:50 EGPF 160050Z AUTO 22017G27KT 9999 BKN015/// //////CB 09/07 Q0998 SW (220°) 19.6mph 31.1mph 9°C 7°C
16/01/19 00:20 EGPF 160020Z AUTO 21019KT 9999 SCT015 BKN020 BKN031 09/07 Q0999 SSW (210°) 21.9mph 9°C 7°C
15/01/19 23:50 EGPF 152350Z AUTO 22024KT 9999 FEW020 SCT036 09/07 Q0999 SW (220°) 27.6mph 9°C 7°C
15/01/19 23:20 EGPF 152320Z AUTO 22024KT 9999 BKN022 09/07 Q1000 SW (220°) 27.6mph 9°C 7°C
15/01/19 22:50 EGPF 152250Z AUTO 23024KT 9999 FEW018 BKN022 09/07 Q1000 SW (230°) 27.6mph 9°C 7°C
15/01/19 22:20 EGPF 152220Z AUTO 23023KT 9999 BKN017 BKN022 OVC040 09/07 Q1001 SW (230°) 26.5mph 9°C 7°C
15/01/19 21:50 EGPF 152150Z AUTO 24018KT 9999 SCT014 BKN019 OVC027 09/08 Q1001 WSW (240°) 20.7mph 9°C 8°C
15/01/19 21:20 EGPF 152120Z AUTO 24021KT 9999 BKN012 OVC024 09/08 Q1002 WSW (240°) 24.2mph 9°C 8°C
15/01/19 20:50 EGPF 152050Z AUTO 24019KT 9999 OVC013/// //////CB 09/08 Q1002 WSW (240°) 21.9mph 9°C 8°C
15/01/19 20:20 EGPF 152020Z AUTO 23022KT 9999 -RA BKN016/// BKN020/// OVC049/// //////CB 09/08 Q1002 -RA SW (230°) 25.3mph 9°C 8°C
15/01/19 19:50 EGPF 151950Z AUTO 22023KT 9999 -RA SCT017/// BKN024/// BKN040/// //////CB 09/08 Q1003 RERA -RA SW (220°) 26.5mph 9°C 8°C
15/01/19 19:20 EGPF 151920Z AUTO 23021KT 6000 -RA BKN016 OVC047 09/08 Q1003 -RA SW (230°) 24.2mph 9°C 8°C
15/01/19 18:50 EGPF 151850Z AUTO 23020KT 6000 -RA SCT018/// BKN032/// BKN039/// //////CB 09/07 Q1004 -RA SW (230°) 23.0mph 9°C 7°C
15/01/19 18:20 EGPF 151820Z AUTO 23022KT 9999 -RA FEW020/// SCT029/// BKN034/// //////CB 09/07 Q1004 -RA SW (230°) 25.3mph 9°C 7°C
15/01/19 17:50 EGPF 151750Z AUTO 23024KT 9999 -RA FEW022/// OVC031/// //////CB 09/07 Q1004 -RA SW (230°) 27.6mph 9°C 7°C
15/01/19 17:20 EGPF 151720Z AUTO 23026KT 9999 SCT017/// BKN025/// BKN032/// //////CB 09/07 Q1005 SW (230°) 29.9mph 9°C 7°C
15/01/19 16:50 EGPF 151650Z 23021KT 9999 4500NE -RADZ BKN012 08/07 Q1005 RERA REDZ -RA DZ SW (230°) 24.2mph 8°C 7°C
15/01/19 16:20 EGPF 151620Z 22021KT 5000 -RADZ OVC012 08/07 Q1006 -RA -DZ SW (220°) 24.2mph 8°C 7°C
15/01/19 15:50 EGPF 151550Z AUTO 22020KT 9000 BKN013 BKN024 08/07 Q1006 SW (220°) 23.0mph 8°C 7°C
15/01/19 15:20 EGPF 151520Z AUTO 22023KT 9999 BKN041/// //////CB 09/06 Q1006 SW (220°) 26.5mph 9°C 6°C
15/01/19 14:50 EGPF 151450Z AUTO 23020KT 9999 BKN043/// //////CB 09/06 Q1007 SW (230°) 23.0mph 9°C 6°C
15/01/19 14:20 EGPF 151420Z AUTO 24018KT 9999 OVC047 10/06 Q1007 WSW (240°) 20.7mph 10°C 6°C
15/01/19 13:50 EGPF 151350Z AUTO 23015KT 9999 FEW021 SCT033 OVC045 10/07 Q1008 SW (230°) 17.3mph 10°C 7°C
15/01/19 13:20 EGPF 151320Z AUTO 23016KT 9999 SCT030 OVC042 09/07 Q1008 SW (230°) 18.4mph 9°C 7°C
15/01/19 12:50 EGPF 151250Z AUTO 23019KT 9999 OVC027/// //////CB 09/07 Q1009 SW (230°) 21.9mph 9°C 7°C
15/01/19 12:20 EGPF 151220Z AUTO 22016KT 9999 -RA BKN023 OVC029 09/07 Q1009 -RA SW (220°) 18.4mph 9°C 7°C
15/01/19 11:50 EGPF 151150Z AUTO 23019G29KT 9000 -RA OVC022 09/07 Q1009 -RA SW (230°) 21.9mph 33.4mph 9°C 7°C
15/01/19 11:20 EGPF 151120Z AUTO 23020KT 9999 BKN025/// BKN030/// //////CB 10/07 Q1010 SW (230°) 23.0mph 10°C 7°C
15/01/19 10:50 EGPF 151050Z AUTO 24020KT 9999 BKN024 BKN033 10/07 Q1010 WSW (240°) 23.0mph 10°C 7°C
15/01/19 10:20 EGPF 151020Z AUTO 24019KT 9999 OVC023 10/07 Q1010 WSW (240°) 21.9mph 10°C 7°C
15/01/19 09:50 EGPF 150950Z AUTO 24017G27KT 9999 BKN020 BKN025 10/07 Q1010 WSW (240°) 19.6mph 31.1mph 10°C 7°C
15/01/19 09:20 EGPF 150920Z AUTO 24016KT 9999 BKN019 BKN024 10/08 Q1011 WSW (240°) 18.4mph 10°C 8°C
15/01/19 08:50 EGPF 150850Z AUTO 24015KT 9999 BKN020 BKN029 10/08 Q1011 WSW (240°) 17.3mph 10°C 8°C
15/01/19 08:20 EGPF 150820Z AUTO 24017KT 9999 SCT018 BKN023 OVC047 10/08 Q1011 WSW (240°) 19.6mph 10°C 8°C
15/01/19 07:50 EGPF 150750Z AUTO 24018KT 9999 BKN014 OVC022 10/08 Q1010 WSW (240°) 20.7mph 10°C 8°C
15/01/19 07:20 EGPF 150720Z AUTO 24017KT 9999 BKN014 OVC027 10/09 Q1010 WSW (240°) 19.6mph 10°C 9°C
15/01/19 06:50 EGPF 150650Z AUTO 24015KT 9999 BKN013 OVC043 10/09 Q1010 WSW (240°) 17.3mph 10°C 9°C
15/01/19 06:20 EGPF 150620Z AUTO 25017G28KT 9999 BKN013/// BKN025/// BKN035/// //////CB 10/09 Q1010 WSW (250°) 19.6mph 32.2mph 10°C 9°C
15/01/19 05:50 EGPF 150550Z AUTO 25020KT 3800 -RA SCT013 SCT022 BKN030 10/09 Q1010 -RA WSW (250°) 23.0mph 10°C 9°C
15/01/19 05:20 EGPF 150520Z AUTO 24018KT 4200 -DZ OVC010 10/09 Q1011 -DZ WSW (240°) 20.7mph 10°C 9°C
15/01/19 04:50 EGPF 150450Z AUTO 25016KT 4300 -RA BKN011 OVC016 10/09 Q1011 -RA WSW (250°) 18.4mph 10°C 9°C
15/01/19 04:20 EGPF 150420Z AUTO 25016KT 7000 -RA BKN011 OVC018 10/09 Q1011 -RA WSW (250°) 18.4mph 10°C 9°C
15/01/19 03:50 EGPF 150350Z AUTO 24016KT 8000 -RA BKN013 BKN017 09/09 Q1012 -RA WSW (240°) 18.4mph 9°C 9°C
15/01/19 03:20 EGPF 150320Z AUTO 23015KT 6000 -RA FEW011 BKN015 09/08 Q1012 -RA SW (230°) 17.3mph 9°C 8°C
15/01/19 02:50 EGPF 150250Z AUTO 23018KT 6000 -RA SCT011 BKN017 BKN024 09/08 Q1012 -RA SW (230°) 20.7mph 9°C 8°C
15/01/19 02:20 EGPF 150220Z AUTO 22014KT 7000 SCT015 BKN031 BKN039 09/08 Q1013 SW (220°) 16.1mph 9°C 8°C
15/01/19 01:50 EGPF 150150Z AUTO 22014KT 9999 BKN015 09/07 Q1013 SW (220°) 16.1mph 9°C 7°C
15/01/19 01:20 EGPF 150120Z AUTO 22016KT 9999 BKN016 09/07 Q1013 SW (220°) 18.4mph 9°C 7°C
15/01/19 00:50 EGPF 150050Z AUTO 24018KT 9999 SCT018 09/07 Q1014 WSW (240°) 20.7mph 9°C 7°C
15/01/19 00:20 EGPF 150020Z AUTO 24016KT 9999 BKN018 09/07 Q1014 WSW (240°) 18.4mph 9°C 7°C
14/01/19 23:50 EGPF 142350Z AUTO 25015KT 9999 BKN018 BKN027 09/07 Q1014 WSW (250°) 17.3mph 9°C 7°C
14/01/19 23:20 EGPF 142320Z AUTO 24015KT 9999 BKN015 BKN030 09/08 Q1014 WSW (240°) 17.3mph 9°C 8°C
14/01/19 22:50 EGPF 142250Z AUTO 24015KT 9999 -RA BKN011 09/08 Q1014 -RA WSW (240°) 17.3mph 9°C 8°C
14/01/19 22:20 EGPF 142220Z AUTO 22010KT 8000 BKN009 OVC028 08/08 Q1015 SW (220°) 11.5mph 8°C 8°C
14/01/19 21:50 EGPF 142150Z AUTO 22012KT 4800 BR FEW009 OVC013 08/07 Q1015 BR SW (220°) 13.8mph 8°C 7°C
14/01/19 21:20 EGPF 142120Z AUTO 22019KT 9999 -RA BKN010/// OVC016/// //////TCU 08/07 Q1015 RERA REDZ -RA SW (220°) 21.9mph 8°C 7°C
14/01/19 20:50 EGPF 142050Z AUTO 22018KT 4500 -RADZ SCT008 BKN018 08/07 Q1015 -RA -DZ SW (220°) 20.7mph 8°C 7°C
14/01/19 20:20 EGPF 142020Z 22017KT 6000 -RADZ SCT008 SCT011 BKN018 07/07 Q1015 REDZ -RA -DZ SW (220°) 19.6mph 7°C 7°C
14/01/19 19:50 EGPF 141950Z 22016KT 8000 -DZ SCT011 BKN021 07/07 Q1016 -DZ SW (220°) 18.4mph 7°C 7°C
14/01/19 19:20 EGPF 141920Z AUTO 22016KT 6000 FEW007 SCT016 BKN023 07/06 Q1016 SW (220°) 18.4mph 7°C 6°C
14/01/19 18:50 EGPF 141850Z AUTO 22014KT 8000 BKN007 BKN015 OVC028 07/07 Q1017 SW (220°) 16.1mph 7°C 7°C
14/01/19 18:20 EGPF 141820Z 22010KT 8000 -DZ SCT010 BKN019 07/06 Q1017 -DZ SW (220°) 11.5mph 7°C 6°C
14/01/19 17:50 EGPF 141750Z AUTO 23008KT 9999 BKN020 BKN043 07/05 Q1017 SW (230°) 9.2mph 7°C 5°C
14/01/19 17:20 EGPF 141720Z AUTO 24008KT 9999 BKN018/// BKN026/// OVC038/// //////CB 07/05 Q1017 WSW (240°) 9.2mph 7°C 5°C
14/01/19 16:50 EGPF 141650Z AUTO 25009KT 9999 SCT023 BKN027 BKN033 07/05 Q1017 WSW (250°) 10.4mph 7°C 5°C
14/01/19 15:50 EGPF 141550Z AUTO 22009KT 9999 FEW042 07/05 Q1018 SW (220°) 10.4mph 7°C 5°C
14/01/19 15:20 EGPF 141520Z AUTO 24012KT 9999 SCT030 07/05 Q1018 WSW (240°) 13.8mph 7°C 5°C
14/01/19 14:50 EGPF 141450Z AUTO 25010KT 9999 NCD 08/04 Q1018 WSW (250°) 11.5mph 8°C 4°C
14/01/19 14:20 EGPF 141420Z AUTO 25010KT 9999 FEW036 BKN043 08/05 Q1018 WSW (250°) 11.5mph 8°C 5°C
14/01/19 13:50 EGPF 141350Z AUTO 22006KT 9999 FEW037/// SCT045/// //////TCU 08/05 Q1018 SW (220°) 6.9mph 8°C 5°C
14/01/19 13:20 EGPF 141320Z AUTO 26008KT 9999 -RA BKN025 BKN031 08/05 Q1019 -RA W (260°) 9.2mph 8°C 5°C
14/01/19 12:50 EGPF 141250Z AUTO 26006KT 9999 BKN026/// BKN031/// //////TCU 08/05 Q1019 W (260°) 6.9mph 8°C 5°C
14/01/19 12:20 EGPF 141220Z AUTO 26007KT 9999 -RA SCT020 BKN028 OVC035 08/05 Q1019 -RA W (260°) 8.1mph 8°C 5°C
14/01/19 11:50 EGPF 141150Z AUTO 23004KT 9999 FEW026 BKN030 07/05 Q1019 SW (230°) 4.6mph 7°C 5°C
14/01/19 11:20 EGPF 141120Z AUTO 26004KT 9999 BKN031/// //////TCU 07/04 Q1019 W (260°) 4.6mph 7°C 4°C
14/01/19 10:50 EGPF 141050Z AUTO 25006KT 9999 BKN036/// OVC049/// //////TCU 07/04 Q1019 WSW (250°) 6.9mph 7°C 4°C
14/01/19 10:20 EGPF 141020Z AUTO 24007KT 9999 FEW041 06/04 Q1019 WSW (240°) 8.1mph 6°C 4°C
14/01/19 09:50 EGPF 140950Z AUTO 23007KT 9999 SCT037/// //////TCU 05/04 Q1019 SW (230°) 8.1mph 5°C 4°C
14/01/19 09:20 EGPF 140920Z AUTO 23007KT 9999 FEW033 04/02 Q1019 SW (230°) 8.1mph 4°C 2°C
14/01/19 08:50 EGPF 140850Z AUTO 20006KT 9999 FEW037 05/03 Q1019 SSW (200°) 6.9mph 5°C 3°C
14/01/19 08:20 EGPF 140820Z AUTO 18004KT 9999 NCD 04/03 Q1018 S (180°) 4.6mph 4°C 3°C
14/01/19 07:50 EGPF 140750Z AUTO 26006KT 9999 FEW042/// //////TCU 05/03 Q1018 W (260°) 6.9mph 5°C 3°C
14/01/19 07:20 EGPF 140720Z AUTO 27006KT 9999 -RA FEW026 BKN032 06/04 Q1018 -RA W (270°) 6.9mph 6°C 4°C
14/01/19 06:50 EGPF 140650Z AUTO 28009KT 9999 -RA BKN029 BKN040 06/03 Q1017 -RA W (280°) 10.4mph 6°C 3°C
14/01/19 06:20 EGPF 140620Z AUTO 27006KT 9999 -RA SCT032 BKN041 OVC048 06/03 Q1017 -RA W (270°) 6.9mph 6°C 3°C
14/01/19 05:50 EGPF 140550Z AUTO 26009KT 9999 BKN040 06/03 Q1017 W (260°) 10.4mph 6°C 3°C
14/01/19 05:20 EGPF 140520Z AUTO 26009KT 9999 BKN037 06/03 Q1017 W (260°) 10.4mph 6°C 3°C
14/01/19 04:50 EGPF 140450Z AUTO 23008KT 9999 SCT027 BKN034 06/03 Q1017 SW (230°) 9.2mph 6°C 3°C
14/01/19 04:20 EGPF 140420Z AUTO 17006KT 110V210 9999 SCT028 BKN034 07/03 Q1016 S (170°) 6.9mph 7°C 3°C
14/01/19 03:50 EGPF 140350Z AUTO 22006KT 180V260 9999 BKN030 06/04 Q1016 SW (220°) 6.9mph 6°C 4°C
14/01/19 03:20 EGPF 140320Z AUTO 25008KT 9999 -RA BKN029 OVC046 07/03 Q1016 -RA WSW (250°) 9.2mph 7°C 3°C
14/01/19 02:50 EGPF 140250Z AUTO 26008KT 9999 BKN029 OVC039 07/03 Q1015 W (260°) 9.2mph 7°C 3°C
14/01/19 02:20 EGPF 140220Z AUTO 21004KT 160V240 9999 BKN029 OVC034 07/03 Q1015 SSW (210°) 4.6mph 7°C 3°C
14/01/19 01:50 EGPF 140150Z AUTO 17007KT 9999 BKN027 OVC031 07/03 Q1015 S (170°) 8.1mph 7°C 3°C
14/01/19 01:20 EGPF 140120Z AUTO 17011KT 9999 BKN027 BKN033 06/04 Q1014 S (170°) 12.7mph 6°C 4°C
14/01/19 00:50 EGPF 140050Z AUTO VRB02KT 9999 FEW031 06/03 Q1014 N (0°) 2.3mph 6°C 3°C
14/01/19 00:20 EGPF 140020Z AUTO 30009KT 9999 SCT028 07/03 Q1013 WNW (300°) 10.4mph 7°C 3°C
13/01/19 23:50 EGPF 132350Z AUTO 31011KT 9999 NCD 07/03 Q1012 NW (310°) 12.7mph 7°C 3°C
13/01/19 23:20 EGPF 132320Z AUTO 31013KT 9999 NCD 07/03 Q1012 NW (310°) 15.0mph 7°C 3°C
13/01/19 22:50 EGPF 132250Z AUTO 30015KT 9999 FEW027 SCT031 07/03 Q1012 WNW (300°) 17.3mph 7°C 3°C
13/01/19 22:20 EGPF 132220Z AUTO 28011KT 9999 SCT030 07/03 Q1012 W (280°) 12.7mph 7°C 3°C
13/01/19 21:50 EGPF 132150Z AUTO 30013KT 9999 SCT031 07/03 Q1011 WNW (300°) 15.0mph 7°C 3°C
13/01/19 21:20 EGPF 132120Z AUTO 29013KT 9999 BKN031 BKN038 07/04 Q1011 WNW (290°) 15.0mph 7°C 4°C
13/01/19 20:50 EGPF 132050Z AUTO 28016G29KT 9999 BKN030 08/04 Q1010 W (280°) 18.4mph 33.4mph 8°C 4°C
13/01/19 20:20 EGPF 132020Z AUTO 29015KT 9999 SCT032 07/04 Q1010 WNW (290°) 17.3mph 7°C 4°C
13/01/19 19:50 EGPF 131950Z AUTO 27016KT 9999 SCT031/// BKN037/// //////TCU 07/04 Q1009 W (270°) 18.4mph 7°C 4°C
13/01/19 19:20 EGPF 131920Z AUTO 27015KT 9999 SCT034/// //////TCU 07/04 Q1009 W (270°) 17.3mph 7°C 4°C
13/01/19 18:50 EGPF 131850Z AUTO 26015KT 9999 SCT031/// BKN039/// //////TCU 07/04 Q1009 W (260°) 17.3mph 7°C 4°C
13/01/19 18:20 EGPF 131820Z AUTO 27013KT 9999 FEW036/// //////TCU 07/04 Q1009 W (270°) 15.0mph 7°C 4°C
13/01/19 17:50 EGPF 131750Z AUTO 27016KT 9999 -RA FEW024/// BKN031/// //////TCU 07/04 Q1009 -RA W (270°) 18.4mph 7°C 4°C
13/01/19 17:20 EGPF 131720Z AUTO 27015KT 9999 -RA SCT029/// BKN039/// //////TCU 07/04 Q1008 -RA W (270°) 17.3mph 7°C 4°C
13/01/19 16:50 EGPF 131650Z AUTO 27015KT 9999 SCT035/// //////TCU 07/04 Q1008 W (270°) 17.3mph 7°C 4°C
13/01/19 16:20 EGPF 131620Z AUTO 27015KT 9999 BKN027/// //////TCU 07/04 Q1008 W (270°) 17.3mph 7°C 4°C
13/01/19 15:50 EGPF 131550Z AUTO 27011KT 9999 FEW030/// //////TCU 07/04 Q1008 W (270°) 12.7mph 7°C 4°C
13/01/19 15:20 EGPF 131520Z AUTO 28016KT 9999 -RA BKN030/// BKN046/// //////TCU 07/05 Q1008 -RA W (280°) 18.4mph 7°C 5°C
13/01/19 14:50 EGPF 131450Z AUTO 28014KT 9999 SCT029/// BKN035/// //////CB 09/04 Q1007 W (280°) 16.1mph 9°C 4°C
13/01/19 14:20 EGPF 131420Z AUTO 28013KT 9999 -RA SCT023/// BKN027/// BKN032/// //////TCU 09/05 Q1007 -RA W (280°) 15.0mph 9°C 5°C
13/01/19 13:50 EGPF 131350Z AUTO 29016G29KT 9999 FEW032/// SCT048/// //////TCU 09/05 Q1007 WNW (290°) 18.4mph 33.4mph 9°C 5°C
13/01/19 13:20 EGPF 131320Z AUTO 30013KT 9999 -RA FEW025/// SCT030/// BKN037/// //////TCU 09/05 Q1008 -RA WNW (300°) 15.0mph 9°C 5°C
13/01/19 12:50 EGPF 131250Z AUTO 29018KT 9999 SCT034/// //////CB 09/05 Q1007 WNW (290°) 20.7mph 9°C 5°C
13/01/19 11:50 EGPF 131150Z AUTO 29017G28KT 9999 //////TCU 09/05 Q1007 WNW (290°) 19.6mph 32.2mph 9°C 5°C
13/01/19 11:20 EGPF 131120Z AUTO 29020G32KT 9999 FEW035 SCT049 09/05 Q1007 WNW (290°) 23.0mph 36.8mph 9°C 5°C
13/01/19 10:20 EGPF 131020Z AUTO 28016KT 9999 -RA SCT029/// SCT038/// BKN045/// //////TCU 09/06 Q1007 -RA W (280°) 18.4mph 9°C 6°C
13/01/19 09:50 EGPF 130950Z AUTO 28025G37KT 4900 -RA BKN027/// BKN039/// BKN047/// //////TCU 09/06 Q1007 -RA W (280°) 28.8mph 42.6mph 9°C 6°C
13/01/19 09:20 EGPF 130920Z AUTO 28019G29KT 9999 -RA FEW015 BKN028 BKN040 09/07 Q1007 RERA -RA W (280°) 21.9mph 33.4mph 9°C 7°C
13/01/19 08:50 EGPF 130850Z AUTO 27018KT 9999 FEW015 SCT026 BKN035 09/07 Q1007 W (270°) 20.7mph 9°C 7°C
13/01/19 08:20 EGPF 130820Z AUTO 27022G35KT 9999 -RA SCT026 BKN034 10/07 Q1007 -RA W (270°) 25.3mph 40.3mph 10°C 7°C
13/01/19 07:50 EGPF 130750Z AUTO 28023G34KT 9999 FEW020 SCT028 BKN035 10/07 Q1007 W (280°) 26.5mph 39.1mph 10°C 7°C
13/01/19 07:20 EGPF 130720Z AUTO 29020G30KT 9999 -RA BKN020 BKN028 10/09 Q1007 -RA WNW (290°) 23.0mph 34.5mph 10°C 9°C
13/01/19 06:50 EGPF 130650Z AUTO 28018KT 9999 SCT021 BKN028 10/09 Q1007 W (280°) 20.7mph 10°C 9°C
13/01/19 06:20 EGPF 130620Z AUTO 27021KT 9999 SCT019 BKN025 BKN029 11/09 Q1007 W (270°) 24.2mph 11°C 9°C
13/01/19 05:50 EGPF 130550Z AUTO 27020KT 9999 -RA SCT018 SCT032 10/09 Q1007 -RA W (270°) 23.0mph 10°C 9°C
13/01/19 05:20 EGPF 130520Z AUTO 27020KT 9999 -RA SCT018 10/09 Q1008 -RA W (270°) 23.0mph 10°C 9°C
13/01/19 04:50 EGPF 130450Z AUTO 27020KT 9999 -RA SCT041 10/09 Q1008 -RA W (270°) 23.0mph 10°C 9°C
13/01/19 04:20 EGPF 130420Z AUTO 27020G30KT 240V300 9999 -RA SCT037 10/09 Q1008 -RA W (270°) 23.0mph 34.5mph 10°C 9°C
13/01/19 03:50 EGPF 130350Z AUTO 27020KT 8000 -RA FEW046 10/09 Q1009 -RA W (270°) 23.0mph 10°C 9°C
13/01/19 03:20 EGPF 130320Z AUTO 27016KT 9000 -RA FEW036 SCT049 10/09 Q1009 -RA W (270°) 18.4mph 10°C 9°C
13/01/19 02:50 EGPF 130250Z AUTO 28015KT 9999 -RA FEW027 SCT042 10/09 Q1010 -RA W (280°) 17.3mph 10°C 9°C
13/01/19 02:20 EGPF 130220Z AUTO 27015G26KT 9999 -RA FEW016 BKN022 10/09 Q1010 -RA W (270°) 17.3mph 29.9mph 10°C 9°C
13/01/19 01:50 EGPF 130150Z AUTO 26013KT 230V300 9999 -RA BKN015 OVC020 10/09 Q1010 -RA W (260°) 15.0mph 10°C 9°C